createdAt,value
2018-08-16T00:01:04.353Z,0
2018-08-16T00:02:13.931Z,0
2018-08-16T00:03:23.511Z,0
2018-08-16T00:04:33.116Z,0
2018-08-16T00:05:42.420Z,0
2018-08-16T00:06:51.995Z,0
2018-08-16T00:08:01.567Z,0
2018-08-16T00:09:11.680Z,0
2018-08-16T00:10:21.260Z,0
2018-08-16T00:11:31.112Z,0
2018-08-16T00:12:40.963Z,0
2018-08-16T00:13:50.869Z,0
2018-08-16T00:15:00.978Z,0
2018-08-16T00:16:10.558Z,0
2018-08-16T00:17:20.674Z,0
2018-08-16T00:18:30.571Z,0
2018-08-16T00:19:40.150Z,0
2018-08-16T00:20:49.998Z,0
2018-08-16T00:21:59.035Z,0
2018-08-16T00:23:08.881Z,0
2018-08-16T00:24:18.729Z,0
2018-08-16T00:25:28.304Z,0
2018-08-16T00:26:37.879Z,0
2018-08-16T00:27:47.994Z,0
2018-08-16T00:28:58.110Z,0
2018-08-16T00:30:07.961Z,0
2018-08-16T00:31:17.261Z,0
2018-08-16T00:32:27.370Z,0
2018-08-16T00:33:37.483Z,0
2018-08-16T00:34:47.598Z,0
2018-08-16T00:35:57.461Z,0
2018-08-16T00:37:06.498Z,0
2018-08-16T00:38:16.080Z,0
2018-08-16T00:39:25.651Z,0
2018-08-16T00:40:35.227Z,0
2018-08-16T00:41:44.809Z,0
2018-08-16T00:42:54.650Z,0
2018-08-16T00:44:04.222Z,0
2018-08-16T00:45:14.058Z,0
2018-08-16T00:46:24.176Z,0
2018-08-16T00:47:33.751Z,0
2018-08-16T00:48:43.870Z,0
2018-08-16T00:49:53.998Z,0
2018-08-16T00:51:03.894Z,0
2018-08-16T00:52:13.789Z,0
2018-08-16T00:53:23.112Z,0
2018-08-16T00:54:32.685Z,0
2018-08-16T00:55:42.803Z,0
2018-08-16T00:56:52.923Z,0
2018-08-16T00:58:03.076Z,0
2018-08-16T00:59:12.428Z,0
2018-08-16T01:00:21.733Z,0
2018-08-16T01:01:31.314Z,0
2018-08-16T01:02:40.915Z,0
2018-08-16T01:03:50.499Z,0
2018-08-16T01:05:00.076Z,0
2018-08-16T01:06:09.660Z,0
2018-08-16T01:07:18.961Z,0
2018-08-16T01:08:28.803Z,0
2018-08-16T01:09:38.375Z,0
2018-08-16T01:10:48.489Z,0
2018-08-16T01:11:58.065Z,0
2018-08-16T01:13:07.643Z,0
2018-08-16T01:14:17.220Z,0
2018-08-16T01:15:26.795Z,0
2018-08-16T01:16:36.372Z,0
2018-08-16T01:17:46.236Z,0
2018-08-16T01:18:55.850Z,0
2018-08-16T01:20:05.733Z,0
2018-08-16T01:21:15.374Z,0
2018-08-16T01:22:25.005Z,0
2018-08-16T01:23:34.583Z,0
2018-08-16T01:24:44.430Z,0
2018-08-16T01:25:54.542Z,0
2018-08-16T01:27:03.851Z,0
2018-08-16T01:28:13.483Z,0
2018-08-16T01:29:23.059Z,0
2018-08-16T01:30:32.906Z,0
2018-08-16T01:31:42.748Z,0
2018-08-16T01:32:52.066Z,0
2018-08-16T01:34:01.641Z,0
2018-08-16T01:35:11.214Z,0
2018-08-16T01:36:21.330Z,0
2018-08-16T01:37:30.903Z,0
2018-08-16T01:38:40.747Z,0
2018-08-16T01:39:50.864Z,0
2018-08-16T01:41:00.444Z,0
2018-08-16T01:42:10.289Z,0
2018-08-16T01:43:20.413Z,0
2018-08-16T01:44:29.726Z,0
2018-08-16T01:45:39.082Z,0
2018-08-16T01:46:48.924Z,0
2018-08-16T01:47:58.240Z,0
2018-08-16T01:49:08.086Z,0
2018-08-16T01:50:17.663Z,0
2018-08-16T01:51:27.506Z,0
2018-08-16T01:52:37.356Z,0
2018-08-16T01:53:46.938Z,0
2018-08-16T01:54:56.521Z,0
2018-08-16T01:56:06.364Z,0
2018-08-16T01:57:16.479Z,0
2018-08-16T01:58:26.602Z,0
2018-08-16T01:59:36.174Z,0
2018-08-16T02:00:45.748Z,0
2018-08-16T02:01:55.319Z,0
2018-08-16T02:03:04.889Z,0
2018-08-16T02:04:14.470Z,0
2018-08-16T02:05:24.048Z,0
2018-08-16T02:06:33.895Z,0
2018-08-16T02:07:43.466Z,0
2018-08-16T02:08:53.036Z,0
2018-08-16T02:10:02.621Z,0
2018-08-16T02:11:12.470Z,0
2018-08-16T02:12:22.319Z,0
2018-08-16T02:13:31.893Z,0
2018-08-16T02:14:41.197Z,0
2018-08-16T02:15:51.047Z,0
2018-08-16T02:17:00.898Z,0
2018-08-16T02:18:10.201Z,0
2018-08-16T02:19:19.782Z,0
2018-08-16T02:20:29.357Z,0
2018-08-16T02:21:38.665Z,0
2018-08-16T02:22:47.970Z,0
2018-08-16T02:23:57.545Z,0
2018-08-16T02:25:06.853Z,0
2018-08-16T02:26:17.021Z,0
2018-08-16T02:27:26.332Z,0
2018-08-16T02:28:35.099Z,0
2018-08-16T02:29:44.953Z,0
2018-08-16T02:30:54.542Z,0
2018-08-16T02:32:04.748Z,0
2018-08-16T02:33:14.928Z,0
2018-08-16T02:34:25.080Z,0
2018-08-16T02:35:35.202Z,0
2018-08-16T02:36:45.345Z,0
2018-08-16T02:37:55.470Z,0
2018-08-16T02:39:05.048Z,0
2018-08-16T02:40:15.175Z,0
2018-08-16T02:41:24.483Z,0
2018-08-16T02:42:33.796Z,0
2018-08-16T02:43:43.373Z,0
2018-08-16T02:44:52.676Z,0
2018-08-16T02:46:02.297Z,0
2018-08-16T02:47:12.415Z,0
2018-08-16T02:48:21.717Z,0
2018-08-16T02:49:31.019Z,0
2018-08-16T02:50:40.604Z,0
2018-08-16T02:51:50.739Z,0
2018-08-16T02:52:59.775Z,0
2018-08-16T02:54:09.353Z,0
2018-08-16T02:55:19.556Z,0
2018-08-16T02:56:29.128Z,0
2018-08-16T02:57:38.728Z,0
2018-08-16T02:58:48.645Z,0
2018-08-16T02:59:58.792Z,0
2018-08-16T03:01:08.360Z,0
2018-08-16T03:02:18.470Z,0
2018-08-16T03:03:28.660Z,0
2018-08-16T03:04:38.238Z,0
2018-08-16T03:05:48.083Z,0
2018-08-16T03:06:57.940Z,0
2018-08-16T03:08:07.799Z,0
2018-08-16T03:09:17.104Z,0
2018-08-16T03:10:26.689Z,0
2018-08-16T03:11:36.819Z,0
2018-08-16T03:12:46.667Z,0
2018-08-16T03:13:56.786Z,0
2018-08-16T03:15:06.640Z,0
2018-08-16T03:16:16.480Z,0
2018-08-16T03:17:26.053Z,0
2018-08-16T03:18:35.903Z,0
2018-08-16T03:19:45.200Z,0
2018-08-16T03:20:54.779Z,0
2018-08-16T03:22:04.894Z,0
2018-08-16T03:23:15.009Z,0
2018-08-16T03:24:24.630Z,0
2018-08-16T03:25:34.204Z,0
2018-08-16T03:26:43.779Z,0
2018-08-16T03:27:53.891Z,0
2018-08-16T03:29:03.468Z,0
2018-08-16T03:30:13.310Z,0
2018-08-16T03:31:22.894Z,0
2018-08-16T03:32:32.739Z,0
2018-08-16T03:33:42.314Z,0
2018-08-16T03:34:52.150Z,0
2018-08-16T03:36:01.725Z,4
2018-08-16T03:37:11.575Z,4
2018-08-16T03:38:21.689Z,4
2018-08-16T03:39:31.268Z,4
2018-08-16T03:40:40.845Z,4
2018-08-16T03:41:50.474Z,8
2018-08-16T03:43:00.338Z,4
2018-08-16T03:44:09.919Z,8
2018-08-16T03:45:19.761Z,8
2018-08-16T03:46:29.335Z,12
2018-08-16T03:47:39.494Z,12
2018-08-16T03:48:49.337Z,12
2018-08-16T03:49:59.451Z,16
2018-08-16T03:51:09.023Z,20
2018-08-16T03:52:19.136Z,24
2018-08-16T03:53:29.026Z,28
2018-08-16T03:54:39.137Z,36
2018-08-16T03:55:48.715Z,40
2018-08-16T03:56:58.292Z,44
2018-08-16T03:58:08.134Z,52
2018-08-16T03:59:17.975Z,56
2018-08-16T04:00:27.824Z,64
2018-08-16T04:01:37.663Z,72
2018-08-16T04:02:47.511Z,84
2018-08-16T04:03:57.412Z,92
2018-08-16T04:05:07.313Z,104
2018-08-16T04:06:16.610Z,116
2018-08-16T04:07:26.189Z,132
2018-08-16T04:08:36.032Z,148
2018-08-16T04:09:45.609Z,164
2018-08-16T04:10:55.005Z,184
2018-08-16T04:12:04.586Z,196
2018-08-16T04:13:13.891Z,212
2018-08-16T04:14:23.463Z,228
2018-08-16T04:15:33.035Z,248
2018-08-16T04:16:42.877Z,268
2018-08-16T04:17:52.722Z,292
2018-08-16T04:19:02.034Z,316
2018-08-16T04:20:11.616Z,340
2018-08-16T04:21:20.920Z,360
2018-08-16T04:22:30.506Z,380
2018-08-16T04:23:40.618Z,408
2018-08-16T04:24:50.260Z,436
2018-08-16T04:25:59.834Z,464
2018-08-16T04:27:09.680Z,492
2018-08-16T04:28:19.257Z,520
2018-08-16T04:29:29.105Z,552
2018-08-16T04:30:38.947Z,576
2018-08-16T04:31:48.794Z,612
2018-08-16T04:32:58.638Z,640
2018-08-16T04:34:08.481Z,664
2018-08-16T04:35:18.499Z,692
2018-08-16T04:36:28.688Z,724
2018-08-16T04:37:38.531Z,756
2018-08-16T04:38:48.372Z,788
2018-08-16T04:39:58.537Z,820
2018-08-16T04:41:08.380Z,852
2018-08-16T04:42:18.221Z,880
2018-08-16T04:43:28.066Z,908
2018-08-16T04:44:37.916Z,936
2018-08-16T04:45:47.222Z,972
2018-08-16T04:46:57.059Z,1004
2018-08-16T04:48:06.643Z,1040
2018-08-16T04:49:16.494Z,1064
2018-08-16T04:50:26.338Z,1092
2018-08-16T04:51:35.971Z,1124
2018-08-16T04:52:45.819Z,1160
2018-08-16T04:53:55.660Z,1196
2018-08-16T04:55:04.695Z,1228
2018-08-16T04:56:14.543Z,1260
2018-08-16T04:57:24.392Z,1304
2018-08-16T04:58:34.238Z,1344
2018-08-16T04:59:44.098Z,1372
2018-08-16T05:00:53.675Z,1384
2018-08-16T05:02:03.522Z,1396
2018-08-16T05:03:13.093Z,1412
2018-08-16T05:04:22.398Z,1424
2018-08-16T05:05:32.248Z,1432
2018-08-16T05:06:41.550Z,1440
2018-08-16T05:07:51.119Z,1460
2018-08-16T05:09:00.958Z,1484
2018-08-16T05:10:10.548Z,1504
2018-08-16T05:11:20.542Z,1532
2018-08-16T05:12:30.386Z,1564
2018-08-16T05:13:39.970Z,1596
2018-08-16T05:14:49.268Z,1636
2018-08-16T05:15:59.105Z,1664
2018-08-16T05:17:09.266Z,1704
2018-08-16T05:18:19.419Z,1740
2018-08-16T05:19:28.992Z,1772
2018-08-16T05:20:38.576Z,1780
2018-08-16T05:21:48.147Z,1820
2018-08-16T05:22:57.995Z,1844
2018-08-16T05:24:07.714Z,1868
2018-08-16T05:25:17.835Z,1896
2018-08-16T05:26:27.678Z,1920
2018-08-16T05:27:37.245Z,1948
2018-08-16T05:28:46.816Z,1972
2018-08-16T05:29:56.665Z,2000
2018-08-16T05:31:05.970Z,2020
2018-08-16T05:32:16.142Z,2032
2018-08-16T05:33:25.714Z,2048
2018-08-16T05:34:35.568Z,2060
2018-08-16T05:35:45.423Z,2076
2018-08-16T05:36:55.538Z,2088
2018-08-16T05:38:04.854Z,2120
2018-08-16T05:39:14.710Z,2140
2018-08-16T05:40:24.563Z,2160
2018-08-16T05:41:33.869Z,2180
2018-08-16T05:42:43.722Z,2200
2018-08-16T05:43:53.639Z,2216
2018-08-16T05:45:02.948Z,2232
2018-08-16T05:46:12.538Z,2244
2018-08-16T05:47:22.387Z,2252
2018-08-16T05:48:32.506Z,2268
2018-08-16T05:49:42.094Z,2276
2018-08-16T05:50:52.235Z,2292
2018-08-16T05:52:02.384Z,2312
2018-08-16T05:53:11.959Z,2312
2018-08-16T05:54:21.533Z,2316
2018-08-16T05:55:30.570Z,2324
2018-08-16T05:56:40.696Z,2340
2018-08-16T05:57:50.268Z,2348
2018-08-16T05:59:00.389Z,2344
2018-08-16T06:00:09.970Z,2364
2018-08-16T06:01:19.007Z,2352
2018-08-16T06:02:28.321Z,2308
2018-08-16T06:03:37.893Z,2376
2018-08-16T06:04:47.463Z,2376
2018-08-16T06:05:57.610Z,2336
2018-08-16T06:07:07.745Z,2392
2018-08-16T06:08:17.595Z,2456
2018-08-16T06:09:27.169Z,2472
2018-08-16T06:10:36.749Z,2488
2018-08-16T06:11:46.060Z,2508
2018-08-16T06:12:55.905Z,2516
2018-08-16T06:14:05.796Z,2532
2018-08-16T06:15:15.926Z,2556
2018-08-16T06:16:26.102Z,2564
2018-08-16T06:17:36.215Z,2568
2018-08-16T06:18:45.570Z,2584
2018-08-16T06:19:54.869Z,2596
2018-08-16T06:21:04.452Z,2612
2018-08-16T06:22:14.308Z,2624
2018-08-16T06:23:23.880Z,2644
2018-08-16T06:24:33.232Z,2656
2018-08-16T06:25:43.106Z,2680
2018-08-16T06:26:52.682Z,2692
2018-08-16T06:28:01.999Z,2704
2018-08-16T06:29:11.835Z,2720
2018-08-16T06:30:21.678Z,2724
2018-08-16T06:31:31.268Z,2732
2018-08-16T06:32:40.867Z,2736
2018-08-16T06:33:50.453Z,2740
2018-08-16T06:34:59.758Z,2744
2018-08-16T06:36:09.121Z,2752
2018-08-16T06:37:18.965Z,2756
2018-08-16T06:38:28.276Z,2760
2018-08-16T06:39:38.130Z,2764
2018-08-16T06:40:47.980Z,2772
2018-08-16T06:41:57.550Z,2788
2018-08-16T06:43:07.393Z,2804
2018-08-16T06:44:17.510Z,2816
2018-08-16T06:45:27.089Z,2832
2018-08-16T06:46:37.227Z,2840
2018-08-16T06:47:47.100Z,2840
2018-08-16T06:48:57.210Z,2848
2018-08-16T06:50:07.054Z,2864
2018-08-16T06:51:16.358Z,2888
2018-08-16T06:52:25.402Z,2896
2018-08-16T06:53:35.306Z,2916
2018-08-16T06:54:45.151Z,2932
2018-08-16T06:55:54.181Z,2944
2018-08-16T06:57:04.032Z,2960
2018-08-16T06:58:13.902Z,2968
2018-08-16T06:59:24.092Z,2984
2018-08-16T07:00:33.671Z,3004
2018-08-16T07:01:43.513Z,3012
2018-08-16T07:02:53.353Z,3012
2018-08-16T07:04:03.199Z,3000
2018-08-16T07:05:12.564Z,3004
2018-08-16T07:06:22.414Z,3016
2018-08-16T07:07:31.458Z,3000
2018-08-16T07:08:40.765Z,2992
2018-08-16T07:09:50.345Z,2996
2018-08-16T07:10:59.651Z,2992
2018-08-16T07:12:09.512Z,2988
2018-08-16T07:13:19.051Z,3004
2018-08-16T07:14:28.365Z,3016
2018-08-16T07:15:38.491Z,3040
2018-08-16T07:16:48.334Z,3060
2018-08-16T07:17:57.633Z,3056
2018-08-16T07:19:07.495Z,3068
2018-08-16T07:20:16.533Z,3072
2018-08-16T07:21:26.105Z,3072
2018-08-16T07:22:35.732Z,3100
2018-08-16T07:23:45.304Z,3100
2018-08-16T07:24:54.847Z,3100
2018-08-16T07:26:04.483Z,3112
2018-08-16T07:27:14.058Z,3144
2018-08-16T07:28:23.634Z,3152
2018-08-16T07:29:33.208Z,3180
2018-08-16T07:30:42.783Z,3188
2018-08-16T07:31:52.629Z,3204
2018-08-16T07:33:02.744Z,3216
2018-08-16T07:34:12.856Z,3260
2018-08-16T07:35:21.890Z,3276
2018-08-16T07:36:32.016Z,3284
2018-08-16T07:37:41.324Z,3264
2018-08-16T07:38:51.165Z,3232
2018-08-16T07:40:00.736Z,3240
2018-08-16T07:41:11.203Z,3252
2018-08-16T07:42:21.055Z,3256
2018-08-16T07:43:30.907Z,3264
2018-08-16T07:44:41.023Z,3284
2018-08-16T07:45:51.395Z,3288
2018-08-16T07:47:01.508Z,3308
2018-08-16T07:48:10.815Z,3328
2018-08-16T07:49:20.661Z,3320
2018-08-16T07:50:30.258Z,3328
2018-08-16T07:51:41.385Z,3328
2018-08-16T07:52:51.198Z,3328
2018-08-16T07:54:01.322Z,3364
2018-08-16T07:55:10.629Z,3408
2018-08-16T07:56:20.205Z,3452
2018-08-16T07:57:30.056Z,3500
2018-08-16T07:58:40.446Z,3544
2018-08-16T07:59:50.031Z,3612
2018-08-16T08:01:00.159Z,3704
2018-08-16T08:02:10.010Z,3804
2018-08-16T08:03:19.866Z,3992
2018-08-16T08:04:29.438Z,4500
2018-08-16T08:05:39.285Z,4308
2018-08-16T08:06:49.128Z,4136
2018-08-16T08:07:58.704Z,4008
2018-08-16T08:09:09.482Z,3952
2018-08-16T08:10:20.054Z,4372
2018-08-16T08:11:29.362Z,4596
2018-08-16T08:12:38.670Z,4124
2018-08-16T08:13:48.512Z,4316
2018-08-16T08:14:57.816Z,4196
2018-08-16T08:16:07.933Z,4264
2018-08-16T08:17:17.242Z,4192
2018-08-16T08:18:26.551Z,3816
2018-08-16T08:19:35.863Z,3620
2018-08-16T08:20:45.491Z,3612
2018-08-16T08:21:54.795Z,3796
2018-08-16T08:23:04.638Z,3928
2018-08-16T08:24:14.213Z,3980
2018-08-16T08:25:24.510Z,4092
2018-08-16T08:26:34.365Z,4112
2018-08-16T08:27:44.482Z,4148
2018-08-16T08:28:53.788Z,4116
2018-08-16T08:30:03.637Z,4004
2018-08-16T08:31:12.941Z,3844
2018-08-16T08:32:22.791Z,3880
2018-08-16T08:33:32.912Z,3980
2018-08-16T08:34:42.750Z,4152
2018-08-16T08:35:52.606Z,4016
2018-08-16T08:37:01.913Z,4216
2018-08-16T08:38:11.538Z,4232
2018-08-16T08:39:21.116Z,4372
2018-08-16T08:40:31.234Z,4448
2018-08-16T08:41:41.092Z,5076
2018-08-16T08:42:50.666Z,5064
2018-08-16T08:44:00.510Z,5856
2018-08-16T08:45:10.088Z,5956
2018-08-16T08:46:19.394Z,5300
2018-08-16T08:47:29.240Z,5980
2018-08-16T08:48:39.365Z,7724
2018-08-16T08:49:49.257Z,8588
2018-08-16T08:50:59.375Z,7776
2018-08-16T08:52:08.955Z,7868
2018-08-16T08:53:18.531Z,7680
2018-08-16T08:54:28.650Z,6932
2018-08-16T08:55:38.760Z,6968
2018-08-16T08:56:47.793Z,7104
2018-08-16T08:57:57.418Z,7564
2018-08-16T08:59:06.478Z,7324
2018-08-16T09:00:16.326Z,6944
2018-08-16T09:01:26.451Z,6724
2018-08-16T09:02:36.032Z,6284
2018-08-16T09:03:45.883Z,5860
2018-08-16T09:04:56.012Z,6684
2018-08-16T09:06:05.865Z,7164
2018-08-16T09:07:15.496Z,6332
2018-08-16T09:08:25.340Z,5468
2018-08-16T09:09:35.197Z,5676
2018-08-16T09:10:45.323Z,6024
2018-08-16T09:11:54.361Z,5764
2018-08-16T09:13:03.670Z,5864
2018-08-16T09:14:13.794Z,6728
2018-08-16T09:15:23.098Z,7108
2018-08-16T09:16:32.950Z,7848
2018-08-16T09:17:43.071Z,9684
2018-08-16T09:18:52.382Z,10064
2018-08-16T09:20:02.234Z,8908
2018-08-16T09:21:11.820Z,7508
2018-08-16T09:22:21.413Z,6568
2018-08-16T09:23:30.991Z,5928
2018-08-16T09:24:41.107Z,7560
2018-08-16T09:25:51.226Z,10756
2018-08-16T09:27:01.091Z,12244
2018-08-16T09:28:10.118Z,12872
2018-08-16T09:29:19.966Z,11948
2018-08-16T09:30:29.872Z,10296
2018-08-16T09:31:40.273Z,9972
2018-08-16T09:32:50.404Z,9220
2018-08-16T09:34:00.522Z,8028
2018-08-16T09:35:10.640Z,7628
2018-08-16T09:36:19.677Z,7352
2018-08-16T09:37:29.253Z,6908
2018-08-16T09:38:39.380Z,7396
2018-08-16T09:39:49.589Z,8668
2018-08-16T09:40:59.590Z,8960
2018-08-16T09:42:09.168Z,8916
2018-08-16T09:43:18.476Z,7544
2018-08-16T09:44:28.344Z,8604
2018-08-16T09:45:38.277Z,8176
2018-08-16T09:46:48.026Z,7372
2018-08-16T09:47:57.977Z,7420
2018-08-16T09:49:08.099Z,7264
2018-08-16T09:50:18.219Z,7116
2018-08-16T09:51:28.409Z,6900
2018-08-16T09:52:37.659Z,7292
2018-08-16T09:53:47.013Z,7912
2018-08-16T09:54:57.133Z,8916
2018-08-16T09:56:06.440Z,9280
2018-08-16T09:57:16.353Z,9524
2018-08-16T09:58:26.210Z,10048
2018-08-16T09:59:36.388Z,9560
2018-08-16T10:00:46.514Z,9768
2018-08-16T10:01:56.370Z,9748
2018-08-16T10:03:06.009Z,9404
2018-08-16T10:04:16.133Z,8444
2018-08-16T10:05:25.984Z,7320
2018-08-16T10:06:35.838Z,8444
2018-08-16T10:07:45.961Z,8376
2018-08-16T10:08:56.083Z,7988
2018-08-16T10:10:05.665Z,8428
2018-08-16T10:11:15.250Z,8716
2018-08-16T10:12:24.561Z,8596
2018-08-16T10:13:34.342Z,8580
2018-08-16T10:14:44.634Z,9412
2018-08-16T10:15:54.751Z,8164
2018-08-16T10:17:04.073Z,7804
2018-08-16T10:18:14.197Z,8492
2018-08-16T10:19:24.069Z,8820
2018-08-16T10:20:33.652Z,9308
2018-08-16T10:21:43.504Z,10112
2018-08-16T10:22:53.628Z,10364
2018-08-16T10:24:03.486Z,10488
2018-08-16T10:25:13.340Z,11260
2018-08-16T10:26:23.186Z,12028
2018-08-16T10:27:32.771Z,12612
2018-08-16T10:28:42.080Z,11788
2018-08-16T10:29:51.122Z,10544
2018-08-16T10:31:00.966Z,8888
2018-08-16T10:32:10.550Z,7872
2018-08-16T10:33:20.133Z,7692
2018-08-16T10:34:29.711Z,8540
2018-08-16T10:35:39.291Z,9700
2018-08-16T10:36:49.416Z,8388
2018-08-16T10:37:59.273Z,8368
2018-08-16T10:39:09.124Z,8872
2018-08-16T10:40:18.755Z,9456
2018-08-16T10:41:28.336Z,9408
2018-08-16T10:42:38.192Z,10032
2018-08-16T10:43:47.510Z,11428
2018-08-16T10:44:57.099Z,13524
2018-08-16T10:46:06.677Z,13320
2018-08-16T10:47:16.532Z,11332
2018-08-16T10:48:26.110Z,9984
2018-08-16T10:49:35.963Z,9476
2018-08-16T10:50:45.817Z,10124
2018-08-16T10:51:55.665Z,10768
2018-08-16T10:53:05.517Z,10208
2018-08-16T10:54:15.640Z,12040
2018-08-16T10:55:25.758Z,12700
2018-08-16T10:56:35.871Z,12796
2018-08-16T10:57:45.455Z,13876
2018-08-16T10:58:55.035Z,14220
2018-08-16T11:00:04.724Z,12832
2018-08-16T11:01:14.643Z,10760
2018-08-16T11:02:24.296Z,10992
2018-08-16T11:03:34.439Z,11580
2018-08-16T11:04:44.297Z,11064
2018-08-16T11:05:54.491Z,11932
2018-08-16T11:07:04.609Z,14052
2018-08-16T11:08:14.742Z,13528
2018-08-16T11:09:24.323Z,12216
2018-08-16T11:10:34.176Z,11316
2018-08-16T11:11:43.807Z,10764
2018-08-16T11:12:53.120Z,10532
2018-08-16T11:14:02.748Z,10808
2018-08-16T11:15:12.598Z,10700
2018-08-16T11:16:22.176Z,11444
2018-08-16T11:17:31.754Z,11016
2018-08-16T11:18:41.673Z,11844
2018-08-16T11:19:51.502Z,13580
2018-08-16T11:21:01.358Z,13560
2018-08-16T11:22:11.206Z,13240
2018-08-16T11:23:20.515Z,12724
2018-08-16T11:24:30.381Z,11808
2018-08-16T11:25:39.963Z,11672
2018-08-16T11:26:49.537Z,11336
2018-08-16T11:27:59.387Z,10496
2018-08-16T11:29:09.245Z,9784
2018-08-16T11:30:19.099Z,9620
2018-08-16T11:31:28.729Z,10396
2018-08-16T11:32:38.578Z,11240
2018-08-16T11:33:48.160Z,12972
2018-08-16T11:34:57.519Z,12144
2018-08-16T11:36:06.529Z,12612
2018-08-16T11:37:16.664Z,12300
2018-08-16T11:38:26.515Z,10684
2018-08-16T11:39:36.097Z,9632
2018-08-16T11:40:45.709Z,9888
2018-08-16T11:41:55.193Z,10320
2018-08-16T11:43:05.043Z,10756
2018-08-16T11:44:14.893Z,10804
2018-08-16T11:45:24.744Z,11360
2018-08-16T11:46:34.537Z,12016
2018-08-16T11:47:44.183Z,11960
2018-08-16T11:48:54.048Z,11508
2018-08-16T11:50:03.357Z,11440
2018-08-16T11:51:13.208Z,11916
2018-08-16T11:52:22.786Z,12184
2018-08-16T11:53:32.920Z,13316
2018-08-16T11:54:43.081Z,13472
2018-08-16T11:55:52.659Z,13360
2018-08-16T11:57:02.235Z,13316
2018-08-16T11:58:12.090Z,13496
2018-08-16T11:59:22.227Z,15076
2018-08-16T12:00:31.269Z,28704
2018-08-16T12:01:41.124Z,43616
2018-08-16T12:02:51.258Z,46176
2018-08-16T12:04:00.844Z,14928
2018-08-16T12:05:10.695Z,47584
2018-08-16T12:06:20.595Z,52896
2018-08-16T12:07:30.820Z,50112
2018-08-16T12:08:40.679Z,46464
2018-08-16T12:09:49.995Z,51488
2018-08-16T12:10:59.310Z,51584
2018-08-16T12:12:09.191Z,51616
2018-08-16T12:13:19.331Z,48832
2018-08-16T12:14:29.209Z,46112
2018-08-16T12:15:39.080Z,18816
2018-08-16T12:16:48.661Z,30272
2018-08-16T12:17:58.246Z,23264
2018-08-16T12:19:08.099Z,30880
2018-08-16T12:20:17.685Z,54144
2018-08-16T12:21:27.541Z,57856
2018-08-16T12:22:37.386Z,53184
2018-08-16T12:23:46.978Z,53056
2018-08-16T12:24:56.825Z,17132
2018-08-16T12:26:06.418Z,54944
2018-08-16T12:27:16.011Z,58176
2018-08-16T12:28:25.860Z,61600
2018-08-16T12:29:35.982Z,59232
2018-08-16T12:30:45.837Z,51904
2018-08-16T12:31:55.695Z,46848
2018-08-16T12:33:05.837Z,20608
2018-08-16T12:34:15.692Z,18528
2018-08-16T12:35:25.010Z,30944
2018-08-16T12:36:34.665Z,34048
2018-08-16T12:37:45.107Z,23424
2018-08-16T12:38:54.732Z,17952
2018-08-16T12:40:04.864Z,19360
2018-08-16T12:41:15.570Z,29632
2018-08-16T12:42:26.275Z,34400
2018-08-16T12:43:36.411Z,46784
2018-08-16T12:44:46.260Z,43360
2018-08-16T12:45:56.388Z,35616
2018-08-16T12:47:06.515Z,50528
2018-08-16T12:48:16.120Z,35264
2018-08-16T12:49:25.700Z,39616
2018-08-16T12:50:35.557Z,43616
2018-08-16T12:51:45.692Z,53568
2018-08-16T12:52:55.272Z,54400
2018-08-16T12:54:04.862Z,48288
2018-08-16T12:55:14.730Z,42048
2018-08-16T12:56:24.594Z,26560
2018-08-16T12:57:34.234Z,21760
2018-08-16T12:58:43.823Z,23456
2018-08-16T12:59:53.680Z,23680
2018-08-16T13:01:03.003Z,28928
2018-08-16T13:02:13.157Z,33696
2018-08-16T13:03:23.020Z,32736
2018-08-16T13:04:32.883Z,53056
2018-08-16T13:05:42.745Z,47968
2018-08-16T13:06:52.333Z,19584
2018-08-16T13:08:01.926Z,16188
2018-08-16T13:09:11.788Z,16328
2018-08-16T13:10:21.644Z,21120
2018-08-16T13:11:30.960Z,22336
2018-08-16T13:12:40.818Z,15428
2018-08-16T13:13:50.415Z,15108
2018-08-16T13:15:00.187Z,16672
2018-08-16T13:16:09.816Z,22400
2018-08-16T13:17:19.665Z,38784
2018-08-16T13:18:29.797Z,21088
2018-08-16T13:19:39.918Z,25792
2018-08-16T13:20:49.497Z,20128
2018-08-16T13:21:59.093Z,23776
2018-08-16T13:23:08.676Z,37152
2018-08-16T13:24:17.996Z,61920
2018-08-16T13:25:27.310Z,70432
2018-08-16T13:26:37.174Z,67520
2018-08-16T13:27:46.908Z,64064
2018-08-16T13:28:57.049Z,57472
2018-08-16T13:30:06.754Z,47872
2018-08-16T13:31:16.820Z,44512
2018-08-16T13:32:26.903Z,41088
2018-08-16T13:33:36.495Z,40992
2018-08-16T13:34:45.808Z,28160
2018-08-16T13:35:55.667Z,20448
2018-08-16T13:37:05.738Z,21728
2018-08-16T13:38:15.678Z,19552
2018-08-16T13:39:25.269Z,25504
2018-08-16T13:40:34.853Z,26752
2018-08-16T13:41:44.173Z,21664
2018-08-16T13:42:53.491Z,16552
2018-08-16T13:44:03.081Z,23808
2018-08-16T13:45:12.935Z,25152
2018-08-16T13:46:22.792Z,33024
2018-08-16T13:47:32.916Z,36096
2018-08-16T13:48:43.255Z,71040
2018-08-16T13:49:53.479Z,69664
2018-08-16T13:51:03.617Z,64064
2018-08-16T13:52:13.744Z,58144
2018-08-16T13:53:23.352Z,56640
2018-08-16T13:54:33.208Z,66240
2018-08-16T13:55:43.077Z,25472
2018-08-16T13:56:52.664Z,67840
2018-08-16T13:58:02.848Z,66048
2018-08-16T13:59:12.702Z,65888
2018-08-16T14:00:22.295Z,65216
2018-08-16T14:01:32.150Z,54272
2018-08-16T14:02:42.299Z,35008
2018-08-16T14:03:51.623Z,25536
2018-08-16T14:05:01.477Z,30176
2018-08-16T14:06:11.337Z,39488
2018-08-16T14:07:21.197Z,44160
2018-08-16T14:08:30.782Z,36800
2018-08-16T14:09:40.381Z,36704
2018-08-16T14:10:50.236Z,37984
2018-08-16T14:11:59.830Z,41792
2018-08-16T14:13:09.714Z,42784
2018-08-16T14:14:19.592Z,33632
2018-08-16T14:15:29.228Z,36064
2018-08-16T14:16:39.091Z,44544
2018-08-16T14:17:48.950Z,40064
2018-08-16T14:18:58.271Z,49600
2018-08-16T14:20:07.854Z,55136
2018-08-16T14:21:17.980Z,54304
2018-08-16T14:22:27.572Z,57248
2018-08-16T14:23:37.163Z,38432
2018-08-16T14:24:47.291Z,50624
2018-08-16T14:25:57.055Z,70752
2018-08-16T14:27:06.168Z,72544
2018-08-16T14:28:16.030Z,80896
2018-08-16T14:29:25.363Z,74976
2018-08-16T14:30:35.228Z,71520
2018-08-16T14:31:45.381Z,71840
2018-08-16T14:32:55.238Z,68128
2018-08-16T14:34:04.841Z,67392
2018-08-16T14:35:14.440Z,78464
2018-08-16T14:36:24.308Z,79168
2018-08-16T14:37:33.901Z,77152
2018-08-16T14:38:44.031Z,76864
2018-08-16T14:39:53.629Z,75936
2018-08-16T14:41:03.494Z,73440
2018-08-16T14:42:12.554Z,75104
2018-08-16T14:43:22.682Z,71616
2018-08-16T14:44:31.998Z,79264
2018-08-16T14:45:42.131Z,74592
2018-08-16T14:46:51.186Z,64192
2018-08-16T14:48:00.777Z,67264
2018-08-16T14:49:10.915Z,67744
2018-08-16T14:50:20.786Z,68928
2018-08-16T14:51:30.709Z,57344
2018-08-16T14:52:40.215Z,47776
2018-08-16T14:53:50.076Z,64384
2018-08-16T14:54:59.398Z,64064
2018-08-16T14:56:09.000Z,69376
2018-08-16T14:57:18.329Z,77536
2018-08-16T14:58:28.201Z,71616
2018-08-16T14:59:37.523Z,72384
2018-08-16T15:00:47.738Z,72800
2018-08-16T15:01:57.068Z,69824
2018-08-16T15:03:06.661Z,64736
2018-08-16T15:04:16.530Z,65888
2018-08-16T15:05:26.402Z,65664
2018-08-16T15:06:35.733Z,66144
2018-08-16T15:07:45.066Z,53312
2018-08-16T15:08:54.669Z,60576
2018-08-16T15:10:04.812Z,63488
2018-08-16T15:11:14.689Z,61216
2018-08-16T15:12:24.573Z,55584
2018-08-16T15:13:34.712Z,52512
2018-08-16T15:14:44.318Z,56160
2018-08-16T15:15:53.924Z,47520
2018-08-16T15:17:03.800Z,36288
2018-08-16T15:18:13.131Z,47488
2018-08-16T15:19:22.741Z,51008
2018-08-16T15:20:32.337Z,54240
2018-08-16T15:21:42.210Z,61984
2018-08-16T15:22:52.554Z,68512
2018-08-16T15:24:02.843Z,71360
2018-08-16T15:25:12.442Z,68480
2018-08-16T15:26:22.047Z,67776
2018-08-16T15:27:31.692Z,68512
2018-08-16T15:28:41.561Z,66144
2018-08-16T15:29:51.425Z,64992
2018-08-16T15:31:01.308Z,66816
2018-08-16T15:32:11.045Z,68448
2018-08-16T15:33:20.767Z,69120
2018-08-16T15:34:30.633Z,64128
2018-08-16T15:35:39.976Z,62432
2018-08-16T15:36:49.834Z,61024
2018-08-16T15:37:59.747Z,65248
2018-08-16T15:39:09.337Z,65856
2018-08-16T15:40:18.392Z,62688
2018-08-16T15:41:28.009Z,60736
2018-08-16T15:42:37.327Z,59840
2018-08-16T15:43:47.193Z,64576